Miercoles, 29 de Junio del 2016

portal contactenos mapa del sitio buscar Revisar Correo Corporativo

Reporte METAR Consolidado

|| Reporte TAF Consolidado ||

Informe METAR emitido cada hora.

METAR

ESTACIÓN

AEROPUERTO

HORA UTC

DESCRIPCIÓN

SLGM

Guayaramerín

10-49S|65-20W

12:00

SLGM 291200Z 18006KT 9999 NSC 20/18 Q1016 A3002 HR91 CI=

SLRI

Riberalta

11-00S|66-04W

12:00

SLRI 291200Z 18004KT 9999 SCT080 BKN200 19/18 Q1018 A3007 HR94=

SLCO

Cobija

11-02S|68-47W

12:00

SLCO 291200Z 00000KT 8000 FEW070 SCT200 18/17 Q1017 A3005 990.2 HR94 BR=

SLJO

San Joaquin

13-03S|64-39W

12:00

SLJO 291200Z 00000KT 9999 NSC 19/16 Q1017 A3003 HR84 CI RWY NML=

SLRA

San Ramón

13-15S|64-36W

12:00

SLRA 291200Z 16005KT 9999 NSC 16/14 Q1016 A3000 HR88 CI RWY NML=

SLMG

San Magdalena

13-15S|64-03W

12:00

SLMG 291200Z 18004KT 9999 NSC 18/17 Q1017 A3003 HR92 CI RWY NML=

SLBU

Baures

13-39S|63-42W

12:00

SLBU 291200Z 00000KT 9999 NSC 18/17 Q1018 A3008 HR92 CI RWY NML=

SLSA

Santa Ana de Yacuma

13-45S|65-26W

12:00

SLSA 291200Z 12003KT 9999 SCT080 BKN200 18/16 Q1017 A3005 HR90=

SLSR

Santa Rosa

14-04S|66-47W

12:00

SLSR 291200Z WO ATTN=

SLRY

Reyes

14-18S|67-21W

12:00

SLRY 291200Z 00000KT 9999 BKN080 15/14 Q1019 A3009 HR96 RWY OPR 1 100M=

SLRQ

Rurrenabaque

14-25S|67-29W

12:00

SLRQ 291200Z 00000KT 9999 SCT080 SCT200 17/17 Q1018 A3007 HR98=

SLAP

Apolo

14-44S|68-24W

-

Mensaje no Recibido